createdAt,value
2023-03-17T00:01:56.082Z,40.50
2023-03-17T00:04:28.563Z,43.30
2023-03-17T00:06:59.912Z,44.20
2023-03-17T00:09:30.908Z,39.50
2023-03-17T00:12:01.854Z,40.60
2023-03-17T00:14:32.840Z,45.90
2023-03-17T00:17:03.848Z,39.20
2023-03-17T00:19:36.715Z,45.60
2023-03-17T00:22:18.194Z,48.80
2023-03-17T00:24:49.049Z,43.30
2023-03-17T00:27:20.684Z,44.80
2023-03-17T00:29:51.951Z,45.60
2023-03-17T00:32:23.800Z,47.80
2023-03-17T00:34:55.646Z,50.50
2023-03-17T00:37:26.597Z,46.90
2023-03-17T00:39:57.518Z,59.10
2023-03-17T00:42:29.910Z,51.80
2023-03-17T00:45:01.509Z,47.40
2023-03-17T00:47:32.916Z,47.20
2023-03-17T00:50:05.111Z,49.60
2023-03-17T00:52:36.093Z,50.60
2023-03-17T00:55:09.188Z,56.40
2023-03-17T00:57:40.662Z,48.30
2023-03-17T01:00:23.065Z,45.80
2023-03-17T01:02:55.929Z,44.70
2023-03-17T01:05:28.661Z,60.00
2023-03-17T01:07:59.901Z,53.60
2023-03-17T01:10:32.766Z,58.70
2023-03-17T01:13:04.577Z,46.80
2023-03-17T01:15:36.378Z,51.00
2023-03-17T01:18:07.420Z,45.30
2023-03-17T01:20:38.269Z,45.00
2023-03-17T01:23:10.639Z,54.50
2023-03-17T01:25:43.269Z,46.90
2023-03-17T01:28:18.080Z,46.80
2023-03-17T01:30:50.123Z,51.60
2023-03-17T01:33:22.376Z,44.80
2023-03-17T01:35:53.503Z,40.70
2023-03-17T01:38:24.862Z,41.80
2023-03-17T01:40:56.836Z,41.00
2023-03-17T01:43:31.781Z,42.10
2023-03-17T01:46:30.082Z,49.10
2023-03-17T01:49:07.979Z,42.90
2023-03-17T01:51:46.501Z,42.00
2023-03-17T01:54:23.283Z,43.70
2023-03-17T01:56:57.779Z,41.20
2023-03-17T01:59:34.500Z,40.20
2023-03-17T02:02:07.988Z,50.70
2023-03-17T02:04:40.357Z,39.30
2023-03-17T02:07:13.192Z,45.10
2023-03-17T02:09:46.168Z,37.20
2023-03-17T02:12:17.430Z,40.10
2023-03-17T02:14:48.385Z,43.60
2023-03-17T02:17:19.296Z,36.00
2023-03-17T02:19:50.629Z,36.00
2023-03-17T02:22:22.030Z,34.00
2023-03-17T02:24:55.872Z,39.40
2023-03-17T02:27:33.929Z,35.60
2023-03-17T02:30:06.613Z,43.20
2023-03-17T02:32:40.454Z,44.90
2023-03-17T02:35:13.486Z,49.80
2023-03-17T02:37:46.779Z,41.20
2023-03-17T02:40:18.797Z,39.60
2023-03-17T02:42:49.748Z,42.90
2023-03-17T02:45:20.963Z,36.40
2023-03-17T02:47:53.168Z,37.60
2023-03-17T02:50:27.954Z,38.60
2023-03-17T02:52:59.192Z,52.80
2023-03-17T02:55:30.203Z,44.30
2023-03-17T02:58:03.239Z,43.70
2023-03-17T03:00:35.022Z,39.20
2023-03-17T03:06:21.443Z,41.10
2023-03-17T03:09:07.325Z,39.80
2023-03-17T03:11:38.433Z,41.00
2023-03-17T03:14:09.854Z,52.50
2023-03-17T03:16:40.749Z,46.00
2023-03-17T03:19:11.630Z,42.60
2023-03-17T03:21:43.584Z,50.50
2023-03-17T03:24:16.911Z,39.60
2023-03-17T03:26:48.333Z,58.00
2023-03-17T03:29:19.126Z,47.80
2023-03-17T03:31:53.432Z,38.00
2023-03-17T03:37:25.161Z,44.50
2023-03-17T03:39:56.610Z,39.70
2023-03-17T03:42:27.879Z,46.90
2023-03-17T03:45:02.591Z,52.00
2023-03-17T03:47:43.286Z,44.50
2023-03-17T03:50:15.285Z,44.60
2023-03-17T03:52:46.722Z,38.80
2023-03-17T03:55:17.952Z,52.70
2023-03-17T03:57:48.782Z,47.40
2023-03-17T04:00:21.153Z,46.50
2023-03-17T04:02:55.653Z,51.70
2023-03-17T04:05:26.876Z,59.60
2023-03-17T04:07:57.734Z,55.30
2023-03-17T04:10:29.980Z,55.80
2023-03-17T04:13:01.386Z,51.90
2023-03-17T04:15:35.277Z,53.40
2023-03-17T04:21:54.756Z,46.30
2023-03-17T04:24:23.575Z,43.90
2023-03-17T04:26:51.865Z,52.30
2023-03-17T04:29:20.371Z,42.10
2023-03-17T04:31:49.816Z,46.30
2023-03-17T04:34:20.083Z,51.00
2023-03-17T04:36:50.980Z,51.90
2023-03-17T04:39:41.531Z,47.20
2023-03-17T04:42:10.748Z,42.70
2023-03-17T04:44:39.356Z,45.50
2023-03-17T04:47:17.579Z,50.80
2023-03-17T04:49:46.198Z,44.90
2023-03-17T04:52:14.561Z,51.00
2023-03-17T04:54:43.045Z,48.30
2023-03-17T04:57:12.013Z,56.70
2023-03-17T04:59:40.275Z,48.90
2023-03-17T05:02:08.748Z,62.60
2023-03-17T05:04:37.898Z,60.30
2023-03-17T05:07:07.180Z,56.30
2023-03-17T05:09:36.453Z,43.40
2023-03-17T05:12:07.967Z,51.50
2023-03-17T05:14:36.486Z,42.10
2023-03-17T05:17:05.533Z,53.90
2023-03-17T05:19:36.684Z,52.90
2023-03-17T05:22:05.370Z,52.00
2023-03-17T05:24:34.957Z,46.50
2023-03-17T05:27:03.728Z,48.00
2023-03-17T05:29:32.104Z,43.30
2023-03-17T05:32:00.690Z,46.20
2023-03-17T05:34:33.565Z,42.40
2023-03-17T05:37:02.969Z,49.20
2023-03-17T05:39:31.871Z,42.70
2023-03-17T05:42:00.313Z,40.80
2023-03-17T05:44:28.585Z,44.60
2023-03-17T05:46:59.193Z,38.70
2023-03-17T05:49:28.503Z,48.50
2023-03-17T05:52:04.606Z,46.00
2023-03-17T05:54:33.005Z,46.40
2023-03-17T05:57:01.497Z,44.60
2023-03-17T05:59:29.956Z,46.80
2023-03-17T06:01:58.364Z,48.70
2023-03-17T06:04:26.740Z,43.40
2023-03-17T06:06:57.274Z,40.60
2023-03-17T06:09:25.668Z,39.20
2023-03-17T06:11:54.069Z,38.50
2023-03-17T06:14:22.461Z,35.90
2023-03-17T06:16:50.859Z,38.10
2023-03-17T06:19:21.988Z,38.70
2023-03-17T06:21:54.478Z,35.70
2023-03-17T06:24:30.792Z,33.10
2023-03-17T06:26:59.513Z,34.70
2023-03-17T06:29:28.192Z,34.50
2023-03-17T06:32:01.495Z,41.80
2023-03-17T06:34:42.671Z,31.80
2023-03-17T06:37:11.663Z,31.00
2023-03-17T06:39:47.814Z,29.40
2023-03-17T06:42:16.611Z,26.80
2023-03-17T06:44:44.988Z,27.60
2023-03-17T06:47:13.747Z,27.30
2023-03-17T06:49:42.288Z,25.30
2023-03-17T06:52:11.093Z,23.60
2023-03-17T06:54:40.709Z,27.30
2023-03-17T06:57:09.533Z,33.60
2023-03-17T06:59:38.601Z,24.40
2023-03-17T07:02:07.772Z,34.50
2023-03-17T07:04:37.584Z,26.40
2023-03-17T07:07:06.750Z,22.60
2023-03-17T07:09:35.222Z,21.40
2023-03-17T07:12:05.732Z,21.60
2023-03-17T07:14:36.471Z,18.80
2023-03-17T07:17:06.326Z,22.40
2023-03-17T07:19:35.020Z,29.70
2023-03-17T07:22:03.501Z,27.50
2023-03-17T07:24:32.040Z,20.60
2023-03-17T07:27:00.546Z,27.80
2023-03-17T07:29:29.399Z,19.30
2023-03-17T07:31:58.032Z,19.80
2023-03-17T07:34:27.590Z,17.80
2023-03-17T07:36:56.064Z,24.20
2023-03-17T07:39:24.356Z,23.70
2023-03-17T07:41:54.666Z,19.90
2023-03-17T07:44:23.309Z,23.60
2023-03-17T07:46:52.021Z,22.30
2023-03-17T07:49:38.002Z,27.40
2023-03-17T07:52:09.499Z,18.00
2023-03-17T07:54:43.029Z,17.80
2023-03-17T07:57:13.345Z,16.40
2023-03-17T07:59:41.851Z,18.70
2023-03-17T08:02:16.011Z,19.90
2023-03-17T08:04:45.227Z,17.40
2023-03-17T08:07:14.995Z,25.70
2023-03-17T08:09:46.748Z,21.20
2023-03-17T08:12:15.953Z,23.10
2023-03-17T08:14:44.229Z,18.80
2023-03-17T08:17:13.598Z,17.30
2023-03-17T08:19:41.868Z,22.20
2023-03-17T08:22:13.044Z,23.40
2023-03-17T08:24:42.436Z,21.30
2023-03-17T08:27:11.047Z,20.30
2023-03-17T08:29:39.719Z,17.40
2023-03-17T08:32:09.473Z,14.80
2023-03-17T08:34:40.611Z,29.50
2023-03-17T08:37:12.092Z,20.10
2023-03-17T08:39:41.094Z,15.70
2023-03-17T08:42:09.486Z,14.80
2023-03-17T08:44:38.526Z,10.60
2023-03-17T08:47:07.419Z,15.70
2023-03-17T08:49:35.994Z,11.10
2023-03-17T08:52:04.921Z,23.80
2023-03-17T08:54:36.125Z,14.70
2023-03-17T08:57:04.947Z,20.80
2023-03-17T08:59:33.232Z,14.00
2023-03-17T09:02:02.035Z,11.30
2023-03-17T09:04:31.984Z,13.30
2023-03-17T09:07:04.437Z,16.10
2023-03-17T09:09:34.804Z,10.00
2023-03-17T09:12:05.691Z,17.70
2023-03-17T09:14:42.873Z,19.90
2023-03-17T09:17:13.805Z,17.60
2023-03-17T09:19:42.858Z,15.20
2023-03-17T09:22:15.375Z,16.60
2023-03-17T09:24:44.185Z,11.80
2023-03-17T09:27:12.909Z,11.90
2023-03-17T09:29:42.087Z,10.20
2023-03-17T09:32:13.092Z,13.10
2023-03-17T09:34:42.508Z,10.70
2023-03-17T09:37:14.019Z,11.00
2023-03-17T09:39:42.565Z,12.40
2023-03-17T09:42:38.675Z,9.00
2023-03-17T09:45:24.684Z,9.80
2023-03-17T09:48:33.596Z,12.70
2023-03-17T09:51:04.705Z,11.70
2023-03-17T09:53:36.158Z,11.90
2023-03-17T09:56:11.762Z,12.20
2023-03-17T09:58:49.535Z,10.40
2023-03-17T10:01:19.669Z,10.90
2023-03-17T10:03:50.046Z,8.50
2023-03-17T10:06:34.347Z,16.90
2023-03-17T10:09:14.557Z,12.70
2023-03-17T10:11:45.917Z,12.10
2023-03-17T10:14:38.327Z,8.90
2023-03-17T10:17:16.947Z,8.30
2023-03-17T10:19:49.053Z,11.20
2023-03-17T10:22:23.179Z,8.00
2023-03-17T10:24:57.087Z,8.90
2023-03-17T10:27:27.510Z,21.10
2023-03-17T10:29:57.807Z,9.50
2023-03-17T10:32:41.103Z,11.30
2023-03-17T10:35:12.172Z,11.00
2023-03-17T10:37:43.954Z,13.70
2023-03-17T10:40:26.205Z,10.00
2023-03-17T10:43:01.431Z,11.30
2023-03-17T10:45:33.429Z,9.20
2023-03-17T10:48:03.906Z,8.90
2023-03-17T10:50:35.815Z,10.70
2023-03-17T10:53:08.378Z,12.10
2023-03-17T10:55:44.399Z,10.70
2023-03-17T10:58:18.408Z,15.50
2023-03-17T11:00:57.287Z,14.30
2023-03-17T11:03:33.209Z,16.30
2023-03-17T11:06:06.595Z,9.60
2023-03-17T11:08:45.416Z,16.10
2023-03-17T11:14:37.556Z,8.60
2023-03-17T11:17:25.839Z,10.10
2023-03-17T11:20:03.671Z,12.20
2023-03-17T11:22:39.536Z,9.70
2023-03-17T11:25:14.269Z,11.90
2023-03-17T11:27:47.717Z,11.30
2023-03-17T11:30:23.521Z,11.40
2023-03-17T11:32:59.898Z,10.00
2023-03-17T11:35:55.165Z,12.80
2023-03-17T11:38:29.312Z,11.20
2023-03-17T11:41:13.268Z,14.20
2023-03-17T11:43:57.131Z,10.30
2023-03-17T11:46:28.476Z,11.20
2023-03-17T11:49:10.451Z,9.00
2023-03-17T11:51:56.882Z,14.00
2023-03-17T11:54:36.813Z,9.70
2023-03-17T11:57:11.535Z,15.90
2023-03-17T11:59:47.312Z,12.40
2023-03-17T12:02:24.694Z,14.60
2023-03-17T12:04:57.112Z,12.70
2023-03-17T12:07:29.609Z,15.30
2023-03-17T12:10:12.091Z,12.70
2023-03-17T12:12:46.173Z,14.20
2023-03-17T12:15:23.559Z,12.50
2023-03-17T12:17:57.627Z,12.90
2023-03-17T12:20:33.475Z,17.90
2023-03-17T12:23:12.132Z,12.80
2023-03-17T12:25:49.876Z,18.80
2023-03-17T12:28:24.951Z,17.30
2023-03-17T12:30:57.966Z,17.30
2023-03-17T12:33:31.619Z,14.00
2023-03-17T12:36:02.450Z,10.20
2023-03-17T12:38:37.972Z,19.90
2023-03-17T12:41:38.455Z,14.20
2023-03-17T12:44:17.991Z,18.10
2023-03-17T12:47:17.367Z,18.10
2023-03-17T12:50:13.652Z,15.50
2023-03-17T12:53:04.436Z,16.20
2023-03-17T12:55:36.367Z,16.20
2023-03-17T12:58:07.515Z,16.30
2023-03-17T13:00:50.011Z,17.80
2023-03-17T13:03:24.384Z,14.00
2023-03-17T13:05:58.082Z,16.50
2023-03-17T13:08:31.644Z,15.70
2023-03-17T13:11:46.393Z,14.60
2023-03-17T13:14:26.852Z,18.70
2023-03-17T13:17:04.567Z,15.40
2023-03-17T13:19:34.011Z,17.50
2023-03-17T13:22:33.063Z,15.60
2023-03-17T13:25:16.025Z,21.30
2023-03-17T13:27:46.063Z,13.40
2023-03-17T13:30:43.629Z,15.60
2023-03-17T13:33:30.685Z,12.70
2023-03-17T13:36:15.900Z,16.50
2023-03-17T13:39:18.331Z,12.10
2023-03-17T13:42:18.602Z,14.20
2023-03-17T13:45:09.919Z,14.90
2023-03-17T13:47:41.628Z,14.50
2023-03-17T13:50:15.703Z,12.80
2023-03-17T13:52:49.395Z,16.30
2023-03-17T13:55:37.362Z,13.60
2023-03-17T13:58:34.475Z,10.20
2023-03-17T14:01:09.377Z,15.10
2023-03-17T14:03:48.287Z,11.10
2023-03-17T14:06:19.914Z,13.80
2023-03-17T14:08:53.357Z,18.10
2023-03-17T14:11:33.530Z,21.70
2023-03-17T14:14:32.674Z,15.40
2023-03-17T14:17:10.119Z,13.50
2023-03-17T14:19:42.645Z,21.50
2023-03-17T14:22:22.997Z,14.70
2023-03-17T14:24:57.540Z,19.90
2023-03-17T14:27:35.100Z,15.90
2023-03-17T14:30:17.653Z,19.40
2023-03-17T14:32:50.368Z,19.40
2023-03-17T14:35:19.540Z,13.40
2023-03-17T14:37:47.818Z,12.30
2023-03-17T14:40:26.601Z,13.50
2023-03-17T14:42:57.066Z,21.10
2023-03-17T14:45:32.081Z,12.90
2023-03-17T14:48:02.546Z,18.20
2023-03-17T14:50:32.417Z,14.60
2023-03-17T14:53:06.584Z,18.40
2023-03-17T14:55:42.714Z,19.70
2023-03-17T14:58:21.264Z,14.30
2023-03-17T15:00:57.845Z,17.20
2023-03-17T15:03:32.442Z,14.30
2023-03-17T15:06:21.277Z,14.60
2023-03-17T15:08:51.994Z,21.50
2023-03-17T15:11:24.344Z,19.30
2023-03-17T15:13:56.862Z,18.30
2023-03-17T15:16:29.939Z,14.00
2023-03-17T15:19:17.635Z,17.30
2023-03-17T15:21:47.253Z,25.80
2023-03-17T15:24:36.217Z,16.10
2023-03-17T15:27:14.017Z,14.00
2023-03-17T15:29:42.695Z,17.80
2023-03-17T15:32:14.722Z,10.60
2023-03-17T15:34:43.297Z,19.60
2023-03-17T15:37:20.823Z,12.50
2023-03-17T15:39:50.844Z,21.70
2023-03-17T15:42:22.161Z,13.00
2023-03-17T15:44:53.387Z,15.70
2023-03-17T15:47:28.181Z,24.20
2023-03-17T15:50:00.704Z,12.30
2023-03-17T15:52:33.521Z,11.00
2023-03-17T15:55:05.090Z,16.70
2023-03-17T15:57:34.328Z,14.30
2023-03-17T16:00:03.675Z,15.10
2023-03-17T16:02:41.379Z,17.40
2023-03-17T16:05:21.029Z,12.40
2023-03-17T16:07:52.326Z,17.00
2023-03-17T16:10:22.998Z,16.30
2023-03-17T16:12:55.096Z,16.20
2023-03-17T16:15:25.487Z,11.50
2023-03-17T16:17:57.756Z,11.50
2023-03-17T16:20:28.239Z,12.20
2023-03-17T16:22:58.713Z,12.60
2023-03-17T16:25:28.881Z,12.60
2023-03-17T16:27:58.889Z,19.00
2023-03-17T16:30:29.889Z,19.40
2023-03-17T16:33:02.329Z,19.30
2023-03-17T16:35:31.583Z,9.60
2023-03-17T16:38:00.205Z,24.40
2023-03-17T16:40:33.686Z,11.90
2023-03-17T16:43:12.950Z,16.40
2023-03-17T16:45:44.239Z,9.80
2023-03-17T16:48:17.750Z,13.30
2023-03-17T16:50:46.534Z,13.20
2023-03-17T16:53:14.849Z,16.10
2023-03-17T16:55:44.167Z,14.20
2023-03-17T16:58:21.281Z,13.90
2023-03-17T17:00:51.374Z,11.80
2023-03-17T17:06:03.469Z,10.60
2023-03-17T17:08:31.744Z,11.20
2023-03-17T17:11:00.124Z,6.40
2023-03-17T17:13:30.848Z,8.60
2023-03-17T17:16:00.804Z,11.40
2023-03-17T17:18:29.168Z,20.80
2023-03-17T17:20:57.451Z,9.90
2023-03-17T17:23:27.509Z,17.10
2023-03-17T17:25:57.880Z,12.80
2023-03-17T17:28:26.604Z,11.30
2023-03-17T17:30:56.122Z,14.40
2023-03-17T17:33:25.808Z,14.30
2023-03-17T17:36:10.825Z,14.30
2023-03-17T17:38:39.406Z,16.50
2023-03-17T17:41:09.163Z,20.90
2023-03-17T17:43:37.751Z,12.90
2023-03-17T17:46:12.073Z,9.70
2023-03-17T17:48:40.792Z,20.90
2023-03-17T17:51:18.657Z,17.40
2023-03-17T17:53:58.470Z,21.50
2023-03-17T17:56:38.562Z,10.30
2023-03-17T17:59:58.755Z,15.70
2023-03-17T18:02:27.184Z,22.50
2023-03-17T18:04:55.667Z,12.50
2023-03-17T18:07:41.220Z,14.70
2023-03-17T18:10:18.133Z,17.20
2023-03-17T18:12:48.389Z,26.30
2023-03-17T18:15:17.626Z,9.70
2023-03-17T18:17:45.970Z,15.00
2023-03-17T18:20:16.725Z,12.40
2023-03-17T18:22:45.486Z,14.00
2023-03-17T18:25:16.718Z,12.80
2023-03-17T18:27:46.662Z,15.00
2023-03-17T18:30:25.788Z,17.10
2023-03-17T18:32:58.712Z,14.80
2023-03-17T18:35:29.437Z,20.60
2023-03-17T18:37:58.843Z,12.20
2023-03-17T18:40:27.545Z,12.80
2023-03-17T18:42:57.118Z,16.30
2023-03-17T18:45:25.890Z,16.40
2023-03-17T18:47:54.142Z,15.60
2023-03-17T18:50:23.640Z,20.30
2023-03-17T18:52:56.066Z,18.20
2023-03-17T18:55:24.958Z,14.40
2023-03-17T18:57:54.360Z,14.10
2023-03-17T19:00:24.775Z,16.10
2023-03-17T19:02:55.462Z,16.00
2023-03-17T19:05:25.051Z,18.00
2023-03-17T19:07:53.970Z,17.40
2023-03-17T19:10:22.418Z,16.80
2023-03-17T19:12:51.647Z,19.80
2023-03-17T19:15:21.488Z,24.90
2023-03-17T19:17:50.611Z,18.90
2023-03-17T19:20:19.636Z,17.30
2023-03-17T19:22:48.260Z,13.50
2023-03-17T19:25:17.355Z,14.40
2023-03-17T19:27:45.570Z,17.90
2023-03-17T19:30:15.221Z,20.80
2023-03-17T19:32:43.561Z,18.00
2023-03-17T19:35:12.015Z,19.50
2023-03-17T19:37:40.398Z,18.30
2023-03-17T19:40:12.659Z,24.60
2023-03-17T19:42:40.995Z,19.40
2023-03-17T19:45:10.959Z,18.00
2023-03-17T19:47:40.156Z,17.30
2023-03-17T19:50:11.024Z,19.10
2023-03-17T19:52:39.494Z,17.20
2023-03-17T19:55:10.085Z,17.40
2023-03-17T19:57:38.327Z,19.30
2023-03-17T20:00:11.190Z,11.70
2023-03-17T20:02:39.884Z,30.80
2023-03-17T20:05:09.582Z,20.90
2023-03-17T20:07:38.028Z,18.00
2023-03-17T20:10:08.532Z,20.70
2023-03-17T20:12:37.604Z,20.90
2023-03-17T20:15:08.395Z,22.20
2023-03-17T20:17:36.838Z,22.20
2023-03-17T20:20:08.620Z,29.40
2023-03-17T20:22:37.253Z,19.10
2023-03-17T20:25:09.761Z,26.40
2023-03-17T20:27:38.384Z,19.80
2023-03-17T20:30:11.527Z,16.80
2023-03-17T20:32:40.632Z,21.70
2023-03-17T20:35:10.134Z,20.80
2023-03-17T20:37:39.124Z,17.00
2023-03-17T20:40:10.205Z,23.60
2023-03-17T20:42:38.670Z,22.60
2023-03-17T20:45:08.408Z,22.20
2023-03-17T20:47:37.042Z,25.80
2023-03-17T20:50:08.188Z,20.00
2023-03-17T20:52:36.764Z,17.90
2023-03-17T20:55:06.396Z,22.40
2023-03-17T20:57:35.429Z,20.80
2023-03-17T21:00:04.584Z,23.50
2023-03-17T21:02:32.803Z,16.00
2023-03-17T21:05:02.365Z,25.70
2023-03-17T21:07:30.848Z,19.40
2023-03-17T21:10:01.534Z,19.30
2023-03-17T21:12:31.204Z,15.40
2023-03-17T21:15:00.130Z,17.80
2023-03-17T21:17:28.717Z,19.60
2023-03-17T21:19:56.995Z,18.20
2023-03-17T21:22:25.385Z,22.90
2023-03-17T21:24:54.852Z,21.40
2023-03-17T21:27:23.506Z,23.30
2023-03-17T21:29:52.040Z,20.20
2023-03-17T21:32:20.387Z,21.80
2023-03-17T21:34:48.796Z,20.30
2023-03-17T21:37:17.934Z,16.50
2023-03-17T21:39:46.190Z,21.10
2023-03-17T21:42:14.571Z,23.30
2023-03-17T21:44:45.146Z,21.70
2023-03-17T21:47:13.616Z,14.20
2023-03-17T21:49:42.306Z,20.10
2023-03-17T21:52:11.939Z,24.40
2023-03-17T21:54:42.327Z,18.40
2023-03-17T21:57:11.931Z,17.50
2023-03-17T21:59:40.617Z,22.00
2023-03-17T22:02:12.163Z,17.90
2023-03-17T22:04:41.098Z,19.30
2023-03-17T22:07:09.905Z,17.20
2023-03-17T22:09:38.440Z,18.30
2023-03-17T22:12:07.577Z,16.80
2023-03-17T22:14:36.185Z,17.70
2023-03-17T22:17:05.262Z,19.00
2023-03-17T22:19:33.829Z,17.30
2023-03-17T22:22:02.082Z,15.70
2023-03-17T22:24:31.818Z,14.50
2023-03-17T22:27:00.102Z,20.30
2023-03-17T22:29:28.627Z,17.40
2023-03-17T22:31:57.023Z,13.20
2023-03-17T22:34:25.784Z,16.10
2023-03-17T22:36:54.308Z,15.30
2023-03-17T22:39:22.631Z,22.60
2023-03-17T22:41:50.913Z,15.00
2023-03-17T22:44:19.254Z,19.30
2023-03-17T22:46:47.619Z,23.20
2023-03-17T22:49:16.254Z,18.30
2023-03-17T22:51:46.045Z,19.70
2023-03-17T22:54:14.248Z,18.70
2023-03-17T22:56:42.568Z,20.10
2023-03-17T22:59:10.904Z,17.10
2023-03-17T23:01:39.792Z,15.90
2023-03-17T23:04:08.867Z,20.50
2023-03-17T23:06:37.638Z,17.60
2023-03-17T23:09:06.983Z,18.10
2023-03-17T23:11:36.532Z,14.80
2023-03-17T23:14:05.127Z,12.10
2023-03-17T23:16:33.559Z,23.70
2023-03-17T23:19:02.252Z,12.00
2023-03-17T23:21:33.548Z,18.30
2023-03-17T23:24:03.218Z,15.80
2023-03-17T23:26:32.212Z,15.80
2023-03-17T23:29:00.590Z,22.80
2023-03-17T23:31:28.917Z,19.70
2023-03-17T23:33:57.640Z,18.60
2023-03-17T23:36:26.475Z,13.70
2023-03-17T23:38:54.665Z,14.80
2023-03-17T23:41:22.917Z,20.60
2023-03-17T23:43:51.266Z,14.70
2023-03-17T23:46:22.533Z,19.80
2023-03-17T23:48:51.816Z,13.40
2023-03-17T23:51:20.705Z,13.80
2023-03-17T23:53:49.937Z,16.80
2023-03-17T23:56:20.216Z,14.50
2023-03-17T23:58:49.450Z,13.10
